Terminal Aerodrome Forecast
Issued by NWS St Louis, MO

Home | Current Version | Previous Version | Text Only | Print | Product List | Glossary On
Versions: 1 2 3 4 5 6 7 8 9 10 11 12 13 14 15
191
FTUS43 KLSX 310142 AAA
TAFCOU
TAF AMD
KCOU 310142Z 3102/3124 19008KT P6SM VCSH BKN060
     FM310600 16004KT P6SM BKN040
     FM311200 14004KT P6SM BKN080
     FM311600 16007KT P6SM VCSH BKN050=

USA.gov is the U.S. government's official web portal to all federal, state and local government web resources and services.